Time;durP1;ratioP1;P1;durP2;ratioP2;P2;SDS_P1;SDS_P2;PMS_P1;PMS_P2;Temp;Humidity;BMP_temperature;BMP_pressure;BME280_temperature;BME280_humidity;BME280_pressure;Samples;Min_cycle;Max_cycle;Signal;HPM_P1;HPM_P2
2021/03/03 00:01:40;;;;;;;176.57;78.17;;;;;;;;;;5053641;28;20231;-84
2021/03/03 00:04:05;;;;;;;185.60;82.03;;;;;;;;;;5053551;28;20167;-84
2021/03/03 00:06:30;;;;;;;200.83;86.30;;;;;;;;;;5053187;28;20183;-84
2021/03/03 00:08:58;;;;;;;193.40;83.30;;;;;;;;;;5053307;28;20661;-84
2021/03/03 00:11:23;;;;;;;195.00;85.00;;;;;;;;;;5053092;28;20199;-84
2021/03/03 00:13:48;;;;;;;199.50;84.53;;;;;;;;;;5053182;28;20203;-84
2021/03/03 00:16:14;;;;;;;181.73;79.97;;;;;;;;;;5052919;28;20207;-84
2021/03/03 00:18:39;;;;;;;181.27;77.73;;;;;;;;;;5052003;28;20270;-84
2021/03/03 00:21:04;;;;;;;190.73;83.93;;;;;;;;;;5053017;28;20168;-84
2021/03/03 00:23:29;;;;;;;201.47;86.43;;;;;;;;;;5053178;28;20168;-84
2021/03/03 00:25:55;;;;;;;204.80;87.80;;;;;;;;;;5051820;28;20233;-84
2021/03/03 00:28:20;;;;;;;193.33;86.77;;;;;;;;;;5052790;28;20176;-84
2021/03/03 00:30:45;;;;;;;183.63;82.83;;;;;;;;;;5053484;28;20176;-84
2021/03/03 00:33:11;;;;;;;184.30;83.07;;;;;;;;;;5052698;28;20623;-84
2021/03/03 00:35:36;;;;;;;195.47;87.00;;;;;;;;;;5052791;28;20188;-84
2021/03/03 00:38:01;;;;;;;200.13;87.23;;;;;;;;;;5052983;28;20199;-84
2021/03/03 00:40:27;;;;;;;192.57;87.30;;;;;;;;;;5052693;28;20267;-84
2021/03/03 00:42:52;;;;;;;213.13;87.67;;;;;;;;;;5051455;28;20175;-84
2021/03/03 00:45:17;;;;;;;220.13;95.20;;;;;;;;;;5052532;28;20289;-85
2021/03/03 00:47:43;;;;;;;226.67;98.30;;;;;;;;;;5052573;28;20267;-85
2021/03/03 00:50:11;;;;;;;255.43;106.50;;;;;;;;;;5052398;28;20255;-84
2021/03/03 00:52:36;;;;;;;237.23;103.27;;;;;;;;;;5052782;28;20206;-84
2021/03/03 00:55:02;;;;;;;260.57;109.00;;;;;;;;;;5052295;28;20326;-84
2021/03/03 00:57:27;;;;;;;248.47;106.03;;;;;;;;;;5052568;28;20673;-84
2021/03/03 00:59:52;;;;;;;277.87;110.90;;;;;;;;;;5052123;28;20932;-84
2021/03/03 01:02:18;;;;;;;263.23;108.00;;;;;;;;;;5052558;28;20191;-84
2021/03/03 01:04:44;;;;;;;263.83;105.50;;;;;;;;;;5052130;28;20172;-84
2021/03/03 01:07:09;;;;;;;243.73;100.87;;;;;;;;;;5052784;28;20187;-84
2021/03/03 01:09:35;;;;;;;247.37;102.37;;;;;;;;;;5052598;28;20171;-84
2021/03/03 01:12:00;;;;;;;259.83;103.40;;;;;;;;;;5052307;28;20172;-84
2021/03/03 01:14:25;;;;;;;238.73;98.67;;;;;;;;;;5052669;28;20514;-85
2021/03/03 01:16:53;;;;;;;257.07;104.73;;;;;;;;;;5051685;28;20206;-84
2021/03/03 01:19:19;;;;;;;244.57;98.80;;;;;;;;;;5052232;28;20601;-84
2021/03/03 01:21:44;;;;;;;253.40;101.80;;;;;;;;;;5051957;28;20275;-84
2021/03/03 01:24:10;;;;;;;281.10;107.30;;;;;;;;;;5051588;28;20175;-84
2021/03/03 01:26:36;;;;;;;244.97;100.63;;;;;;;;;;5052000;28;20176;-84
2021/03/03 01:29:01;;;;;;;225.50;91.43;;;;;;;;;;5051502;28;20237;-85
2021/03/03 01:31:26;;;;;;;181.40;77.23;;;;;;;;;;5052026;28;20229;-85
2021/03/03 01:33:51;;;;;;;194.00;79.73;;;;;;;;;;5051700;28;20168;-85
2021/03/03 01:36:17;;;;;;;182.20;76.80;;;;;;;;;;5051887;28;20275;-84
2021/03/03 01:38:42;;;;;;;183.87;76.00;;;;;;;;;;5050706;28;20182;-84
2021/03/03 01:41:08;;;;;;;209.80;80.23;;;;;;;;;;5051668;28;20171;-84
2021/03/03 01:43:33;;;;;;;194.90;84.00;;;;;;;;;;5051837;28;20175;-85
2021/03/03 01:45:58;;;;;;;220.77;88.80;;;;;;;;;;5051931;28;20515;-85
2021/03/03 01:48:24;;;;;;;216.30;88.80;;;;;;;;;;5051606;28;20184;-85
2021/03/03 01:50:49;;;;;;;212.93;87.77;;;;;;;;;;5052025;28;20611;-85
2021/03/03 01:53:14;;;;;;;206.97;84.87;;;;;;;;;;5052769;28;20171;-85
2021/03/03 01:55:40;;;;;;;196.70;83.30;;;;;;;;;;5055585;28;20179;-85
2021/03/03 01:58:05;;;;;;;195.17;79.30;;;;;;;;;;5055791;28;20195;-85
2021/03/03 02:00:31;;;;;;;188.93;79.53;;;;;;;;;;5055698;28;20250;-85
2021/03/03 02:02:56;;;;;;;191.27;79.70;;;;;;;;;;5056160;28;20179;-85
2021/03/03 02:05:22;;;;;;;179.83;77.60;;;;;;;;;;5055959;28;20172;-85
2021/03/03 02:08:06;;;;;;;181.73;77.63;;;;;;;;;;5055461;28;20168;-85
2021/03/03 02:10:31;;;;;;;187.37;79.17;;;;;;;;;;5055652;28;20171;-85
2021/03/03 02:13:02;;;;;;;180.73;78.23;;;;;;;;;;5055454;28;20167;-85
2021/03/03 02:15:28;;;;;;;184.17;83.63;;;;;;;;;;5055548;28;20156;-85
2021/03/03 02:17:54;;;;;;;190.47;84.10;;;;;;;;;;5055365;28;20211;-85
2021/03/03 02:20:21;;;;;;;199.70;87.87;;;;;;;;;;5055540;28;20180;-84
2021/03/03 02:23:11;;;;;;;201.73;87.33;;;;;;;;;;5055587;28;20168;-84
2021/03/03 02:25:37;;;;;;;192.70;85.03;;;;;;;;;;5055153;28;20190;-85
2021/03/03 02:28:04;;;;;;;183.87;81.33;;;;;;;;;;5055335;28;20219;-84
2021/03/03 02:30:30;;;;;;;168.87;78.50;;;;;;;;;;5055645;28;20172;-85
2021/03/03 02:32:56;;;;;;;167.70;80.50;;;;;;;;;;5054786;28;20176;-84
2021/03/03 02:35:22;;;;;;;174.23;81.53;;;;;;;;;;5055119;28;20187;-84
2021/03/03 02:37:48;;;;;;;190.77;83.90;;;;;;;;;;5054872;28;20238;-84
2021/03/03 02:40:14;;;;;;;190.83;84.17;;;;;;;;;;5054865;28;20240;-84
2021/03/03 02:42:41;;;;;;;192.70;84.63;;;;;;;;;;5054890;28;20170;-84
2021/03/03 02:45:11;;;;;;;208.43;94.60;;;;;;;;;;5055379;28;20217;-84
2021/03/03 02:47:37;;;;;;;195.90;90.43;;;;;;;;;;5056406;28;20180;-84
2021/03/03 02:50:02;;;;;;;199.40;89.20;;;;;;;;;;5055389;28;20179;-84
2021/03/03 02:52:28;;;;;;;192.23;88.90;;;;;;;;;;5056274;28;20172;-84
2021/03/03 02:54:54;;;;;;;202.70;88.30;;;;;;;;;;5054727;28;20183;-85
2021/03/03 02:57:20;;;;;;;180.47;82.73;;;;;;;;;;5054851;28;20640;-84
2021/03/03 02:59:46;;;;;;;175.87;82.73;;;;;;;;;;5053094;28;20231;-85
2021/03/03 03:02:13;;;;;;;168.07;79.13;;;;;;;;;;5054616;28;20160;-85
2021/03/03 03:04:40;;;;;;;140.60;70.47;;;;;;;;;;5054289;28;20175;-85
2021/03/03 03:07:07;;;;;;;107.47;54.87;;;;;;;;;;5054621;28;20255;-85
2021/03/03 03:09:33;;;;;;;98.93;52.80;;;;;;;;;;5054891;28;20619;-85
2021/03/03 03:11:59;;;;;;;101.20;51.83;;;;;;;;;;5053264;28;20539;-85
2021/03/03 03:14:26;;;;;;;106.57;53.63;;;;;;;;;;5054430;28;20176;-85
2021/03/03 03:16:53;;;;;;;109.43;54.83;;;;;;;;;;5054709;28;20207;-84
2021/03/03 03:19:20;;;;;;;99.67;51.63;;;;;;;;;;5054391;28;20175;-85
2021/03/03 03:21:47;;;;;;;106.73;51.03;;;;;;;;;;5054379;28;20672;-85
2021/03/03 03:24:14;;;;;;;114.67;54.40;;;;;;;;;;5054313;28;20176;-84
2021/03/03 03:26:40;;;;;;;116.33;54.70;;;;;;;;;;5054313;28;20175;-85
2021/03/03 03:29:08;;;;;;;113.10;54.57;;;;;;;;;;5054282;28;20164;-85
2021/03/03 03:31:34;;;;;;;103.90;52.57;;;;;;;;;;5054477;28;20333;-85
2021/03/03 03:34:00;;;;;;;104.43;52.00;;;;;;;;;;5053898;28;20183;-85
2021/03/03 03:36:26;;;;;;;98.97;49.13;;;;;;;;;;5054263;28;20560;-84
2021/03/03 03:38:51;;;;;;;97.27;50.23;;;;;;;;;;5053791;28;20553;-84
2021/03/03 03:41:18;;;;;;;100.37;50.23;;;;;;;;;;5053647;28;20183;-85
2021/03/03 03:43:43;;;;;;;101.40;52.47;;;;;;;;;;5053694;28;20172;-85
2021/03/03 03:46:09;;;;;;;104.23;52.03;;;;;;;;;;5053621;28;20179;-85
2021/03/03 03:48:35;;;;;;;112.67;53.57;;;;;;;;;;5052439;28;20183;-85
2021/03/03 03:51:02;;;;;;;120.33;57.63;;;;;;;;;;5054180;28;20172;-85
2021/03/03 03:53:29;;;;;;;162.67;72.83;;;;;;;;;;5054006;28;20175;-85
2021/03/03 03:55:54;;;;;;;143.80;64.07;;;;;;;;;;5053406;28;20258;-85
2021/03/03 03:58:19;;;;;;;112.23;54.63;;;;;;;;;;5053623;28;20207;-85
2021/03/03 04:00:48;;;;;;;116.10;57.23;;;;;;;;;;5052164;28;20232;-85
2021/03/03 04:03:13;;;;;;;120.50;55.23;;;;;;;;;;5053375;28;20172;-85
2021/03/03 04:05:38;;;;;;;125.10;59.23;;;;;;;;;;5053700;28;20263;-85
2021/03/03 04:08:04;;;;;;;145.93;64.70;;;;;;;;;;5053182;28;20568;-85
2021/03/03 04:10:29;;;;;;;159.00;65.63;;;;;;;;;;5052163;28;20186;-85
2021/03/03 04:12:55;;;;;;;154.13;66.37;;;;;;;;;;5053382;28;20583;-85
2021/03/03 04:15:20;;;;;;;173.33;71.77;;;;;;;;;;5052898;28;20182;-85
2021/03/03 04:17:45;;;;;;;158.90;70.70;;;;;;;;;;5053179;28;20195;-85
2021/03/03 04:20:11;;;;;;;171.70;70.50;;;;;;;;;;5053404;28;20626;-85
2021/03/03 04:22:37;;;;;;;178.27;69.03;;;;;;;;;;5053137;28;20163;-85
2021/03/03 04:25:03;;;;;;;176.43;70.97;;;;;;;;;;5053058;28;20175;-84
2021/03/03 04:27:28;;;;;;;162.17;69.20;;;;;;;;;;5053071;28;20176;-85
2021/03/03 04:29:54;;;;;;;174.03;74.13;;;;;;;;;;5053082;28;20214;-85
2021/03/03 04:32:19;;;;;;;168.10;69.60;;;;;;;;;;5052706;28;20523;-84
2021/03/03 04:34:44;;;;;;;171.13;69.67;;;;;;;;;;5052527;28;20549;-85
2021/03/03 04:37:09;;;;;;;153.80;65.47;;;;;;;;;;5052612;28;20977;-85
2021/03/03 04:39:35;;;;;;;153.10;65.30;;;;;;;;;;5051563;28;20175;-85
2021/03/03 04:42:02;;;;;;;170.67;66.07;;;;;;;;;;5052450;28;20175;-85
2021/03/03 04:44:27;;;;;;;168.10;70.80;;;;;;;;;;5052475;28;20225;-85
2021/03/03 04:46:53;;;;;;;178.60;70.77;;;;;;;;;;5052458;28;20282;-85
2021/03/03 04:49:18;;;;;;;184.43;70.63;;;;;;;;;;5052430;28;20186;-85
2021/03/03 04:51:43;;;;;;;163.90;69.90;;;;;;;;;;5052282;28;20484;-84
2021/03/03 04:54:08;;;;;;;227.33;90.83;;;;;;;;;;5052652;28;20623;-84
2021/03/03 04:56:34;;;;;;;301.63;110.07;;;;;;;;;;5052129;28;20171;-84
2021/03/03 04:58:59;;;;;;;275.63;100.23;;;;;;;;;;5052267;28;20191;-84
2021/03/03 05:01:24;;;;;;;319.87;116.23;;;;;;;;;;5052176;28;20311;-85
2021/03/03 05:03:50;;;;;;;358.33;126.23;;;;;;;;;;5052454;28;20176;-85
2021/03/03 05:06:15;;;;;;;295.07;118.20;;;;;;;;;;5052100;28;20175;-85
2021/03/03 05:08:40;;;;;;;258.07;97.17;;;;;;;;;;5052067;28;20297;-85
2021/03/03 05:11:06;;;;;;;203.70;76.03;;;;;;;;;;5052524;28;20168;-85
2021/03/03 05:13:32;;;;;;;311.80;87.53;;;;;;;;;;5052298;28;20168;-85
2021/03/03 05:15:58;;;;;;;328.73;113.90;;;;;;;;;;5051960;28;20553;-85
2021/03/03 05:18:23;;;;;;;348.90;97.50;;;;;;;;;;5052181;28;20252;-85
2021/03/03 05:20:49;;;;;;;270.47;96.37;;;;;;;;;;5050659;28;20530;-85
2021/03/03 05:23:24;;;;;;;301.07;119.30;;;;;;;;;;5051923;28;20263;-85
2021/03/03 05:25:49;;;;;;;394.27;129.83;;;;;;;;;;5051750;28;20570;-85
2021/03/03 05:28:15;;;;;;;349.83;117.70;;;;;;;;;;5051111;28;20203;-84
2021/03/03 05:30:40;;;;;;;323.47;122.47;;;;;;;;;;5051906;28;20259;-84
2021/03/03 05:33:05;;;;;;;295.03;116.50;;;;;;;;;;5051832;28;20381;-84
2021/03/03 05:35:31;;;;;;;240.63;93.17;;;;;;;;;;5051894;28;20233;-84
2021/03/03 05:37:56;;;;;;;224.50;84.73;;;;;;;;;;5051951;28;20207;-84
2021/03/03 05:40:21;;;;;;;226.87;89.80;;;;;;;;;;5052317;28;20175;-84
2021/03/03 05:42:48;;;;;;;269.33;96.13;;;;;;;;;;5051818;28;20179;-85
2021/03/03 05:45:13;;;;;;;231.40;82.43;;;;;;;;;;5051739;28;20253;-85
2021/03/03 05:47:39;;;;;;;241.87;85.27;;;;;;;;;;5051739;28;20651;-85
2021/03/03 05:50:06;;;;;;;218.63;72.13;;;;;;;;;;5050557;28;20180;-84
2021/03/03 05:52:32;;;;;;;154.20;55.70;;;;;;;;;;5051555;28;20178;-85
2021/03/03 05:54:57;;;;;;;158.87;51.60;;;;;;;;;;5051884;28;20250;-85
2021/03/03 05:57:22;;;;;;;162.63;61.50;;;;;;;;;;5051806;28;20203;-84
2021/03/03 05:59:48;;;;;;;158.30;57.33;;;;;;;;;;5051626;28;20223;-84
2021/03/03 06:02:14;;;;;;;236.93;60.23;;;;;;;;;;5051810;28;20207;-84
2021/03/03 06:04:39;;;;;;;209.53;73.83;;;;;;;;;;5051787;28;20168;-85
2021/03/03 06:07:05;;;;;;;198.07;74.07;;;;;;;;;;5051817;28;20263;-85
2021/03/03 06:09:30;;;;;;;151.50;49.60;;;;;;;;;;5051750;28;20508;-85
2021/03/03 06:11:56;;;;;;;136.07;52.27;;;;;;;;;;5051990;28;20222;-85
2021/03/03 06:14:21;;;;;;;251.00;56.23;;;;;;;;;;5051683;28;20573;-84
2021/03/03 06:16:47;;;;;;;196.97;63.63;;;;;;;;;;5051563;28;20718;-84
2021/03/03 06:19:12;;;;;;;160.07;52.23;;;;;;;;;;5051360;28;20306;-84
2021/03/03 06:21:37;;;;;;;191.43;50.03;;;;;;;;;;5051331;28;20195;-84
2021/03/03 06:24:07;;;;;;;151.83;52.10;;;;;;;;;;5051965;28;20171;-84
2021/03/03 06:26:33;;;;;;;268.93;54.53;;;;;;;;;;5051522;28;20172;-84
2021/03/03 06:28:59;;;;;;;254.40;55.73;;;;;;;;;;5051541;28;20180;-84
2021/03/03 06:31:24;;;;;;;145.00;53.80;;;;;;;;;;5051241;28;20184;-84
2021/03/03 06:33:51;;;;;;;222.80;57.70;;;;;;;;;;5051303;28;20180;-86
2021/03/03 06:36:34;;;;;;;282.17;61.73;;;;;;;;;;5051156;28;20662;-86
2021/03/03 06:39:13;;;;;;;217.47;60.67;;;;;;;;;;5052612;28;20603;-85
2021/03/03 06:41:38;;;;;;;245.97;64.70;;;;;;;;;;5054907;28;20156;-85
2021/03/03 06:44:04;;;;;;;210.17;61.80;;;;;;;;;;5054618;28;20187;-85
2021/03/03 06:46:29;;;;;;;179.53;57.80;;;;;;;;;;5055295;28;20180;-85
2021/03/03 06:48:55;;;;;;;212.97;61.67;;;;;;;;;;5055038;28;20174;-85
2021/03/03 06:51:21;;;;;;;190.27;55.30;;;;;;;;;;5055113;28;20267;-86
2021/03/03 06:53:46;;;;;;;178.03;57.07;;;;;;;;;;5055216;28;20610;-85
2021/03/03 06:56:11;;;;;;;167.63;55.07;;;;;;;;;;5054825;28;20182;-86
2021/03/03 06:58:37;;;;;;;194.13;56.00;;;;;;;;;;5054769;28;20202;-85
2021/03/03 07:01:02;;;;;;;195.87;57.87;;;;;;;;;;5054656;28;20579;-85
2021/03/03 07:03:31;;;;;;;138.17;51.10;;;;;;;;;;5053379;28;20180;-86
2021/03/03 07:05:57;;;;;;;174.47;64.43;;;;;;;;;;5054734;28;20623;-86
2021/03/03 07:08:22;;;;;;;138.53;53.73;;;;;;;;;;5054644;28;20215;-85
2021/03/03 07:10:47;;;;;;;136.83;50.13;;;;;;;;;;5054590;28;20172;-85
2021/03/03 07:13:13;;;;;;;107.07;42.53;;;;;;;;;;5054605;28;20183;-85
2021/03/03 07:15:39;;;;;;;113.60;44.23;;;;;;;;;;5054390;28;20619;-85
2021/03/03 07:18:04;;;;;;;103.17;41.20;;;;;;;;;;5054252;28;20622;-85
2021/03/03 07:20:29;;;;;;;130.50;49.23;;;;;;;;;;5054148;28;20710;-85
2021/03/03 07:22:58;;;;;;;256.63;54.40;;;;;;;;;;5052987;28;20184;-85
2021/03/03 07:25:24;;;;;;;197.33;41.40;;;;;;;;;;5054071;28;20704;-84
2021/03/03 07:27:49;;;;;;;139.27;44.17;;;;;;;;;;5053814;28;20180;-84
2021/03/03 07:30:16;;;;;;;216.53;44.63;;;;;;;;;;5053989;28;20172;-84
2021/03/03 07:32:42;;;;;;;203.17;44.97;;;;;;;;;;5052772;28;20172;-85
2021/03/03 07:35:08;;;;;;;113.00;47.50;;;;;;;;;;5053833;28;20192;-84
2021/03/03 07:37:35;;;;;;;115.53;47.00;;;;;;;;;;5052438;28;20211;-84
2021/03/03 07:40:05;;;;;;;163.60;49.20;;;;;;;;;;5054019;28;20214;-84
2021/03/03 07:42:32;;;;;;;139.13;43.73;;;;;;;;;;5054189;28;20178;-84
2021/03/03 07:44:58;;;;;;;154.47;46.20;;;;;;;;;;5053908;28;20176;-84
2021/03/03 07:47:25;;;;;;;96.33;44.83;;;;;;;;;;5053950;28;20180;-84
2021/03/03 07:49:51;;;;;;;301.80;134.83;;;;;;;;;;5053782;28;20197;-84
2021/03/03 07:52:18;;;;;;;183.53;50.73;;;;;;;;;;5052703;28;20533;-84
2021/03/03 07:54:43;;;;;;;113.17;43.00;;;;;;;;;;5053763;28;20245;-84
2021/03/03 07:57:09;;;;;;;86.10;42.93;;;;;;;;;;5053451;28;20207;-84
2021/03/03 07:59:35;;;;;;;90.43;39.57;;;;;;;;;;5053116;28;20180;-85
2021/03/03 08:02:00;;;;;;;102.40;42.50;;;;;;;;;;5052217;28;20198;-84
2021/03/03 08:04:35;;;;;;;85.83;41.63;;;;;;;;;;5053449;28;20172;-85
2021/03/03 08:07:16;;;;;;;122.23;44.07;;;;;;;;;;5053556;28;20262;-84
2021/03/03 08:10:01;;;;;;;137.80;49.73;;;;;;;;;;5052016;28;20176;-85
2021/03/03 08:12:27;;;;;;;125.70;61.80;;;;;;;;;;5041850;28;20187;-85
2021/03/03 08:14:52;;;;;;;113.83;50.33;;;;;;;;;;5033552;28;20244;-85
2021/03/03 08:17:26;;;;;;;124.67;52.97;;;;;;;;;;5033114;28;20204;-85
2021/03/03 08:19:55;;;;;;;121.67;45.60;;;;;;;;;;5040875;28;20522;-85
2021/03/03 08:22:40;;;;;;;117.77;47.20;;;;;;;;;;5052872;28;20225;-85
2021/03/03 08:25:08;;;;;;;108.90;51.17;;;;;;;;;;5052951;28;20267;-85
2021/03/03 08:27:33;;;;;;;108.33;54.43;;;;;;;;;;5051729;28;20202;-85
2021/03/03 08:30:15;;;;;;;209.53;47.57;;;;;;;;;;5053002;28;20634;-85
2021/03/03 08:32:41;;;;;;;95.23;46.97;;;;;;;;;;5051899;28;20203;-85
2021/03/03 08:35:08;;;;;;;97.00;46.90;;;;;;;;;;5051094;28;20655;-84
2021/03/03 08:37:35;;;;;;;71.07;39.03;;;;;;;;;;5052420;28;20211;-84
2021/03/03 08:40:02;;;;;;;82.93;42.47;;;;;;;;;;5049695;28;20654;-85
2021/03/03 08:42:28;;;;;;;172.70;47.47;;;;;;;;;;5052486;28;20172;-85
2021/03/03 08:45:01;;;;;;;95.83;46.50;;;;;;;;;;5052468;28;20530;-84
2021/03/03 08:47:43;;;;;;;76.80;40.17;;;;;;;;;;5052710;28;20206;-84
2021/03/03 08:50:28;;;;;;;72.63;39.97;;;;;;;;;;5052824;28;20258;-84
2021/03/03 08:53:12;;;;;;;79.13;40.90;;;;;;;;;;5051154;28;20180;-84
2021/03/03 08:55:37;;;;;;;73.47;38.77;;;;;;;;;;5052588;28;20513;-84
2021/03/03 08:58:22;;;;;;;82.13;42.90;;;;;;;;;;5053403;28;20204;-84
2021/03/03 09:00:48;;;;;;;85.67;47.70;;;;;;;;;;5053856;28;20231;-84
2021/03/03 09:03:18;;;;;;;64.57;38.77;;;;;;;;;;5054650;28;20214;-85
2021/03/03 09:05:44;;;;;;;70.43;39.03;;;;;;;;;;5052650;28;20176;-85
2021/03/03 09:08:18;;;;;;;66.33;37.47;;;;;;;;;;5051992;28;20645;-85
2021/03/03 09:10:43;;;;;;;75.70;43.23;;;;;;;;;;5053647;28;20164;-85
2021/03/03 09:13:08;;;;;;;72.60;39.77;;;;;;;;;;5053853;28;20178;-85
2021/03/03 09:15:34;;;;;;;73.53;39.73;;;;;;;;;;5052975;28;20183;-84
2021/03/03 09:18:00;;;;;;;78.67;42.53;;;;;;;;;;5054034;28;20783;-85
2021/03/03 09:20:25;;;;;;;84.80;43.17;;;;;;;;;;5052078;28;20668;-85
2021/03/03 09:22:50;;;;;;;86.23;43.97;;;;;;;;;;5053867;28;20175;-85
2021/03/03 09:25:19;;;;;;;78.77;43.10;;;;;;;;;;5052659;28;20615;-85
2021/03/03 09:27:52;;;;;;;78.37;44.20;;;;;;;;;;5051963;28;20180;-85
2021/03/03 09:30:18;;;;;;;77.30;43.20;;;;;;;;;;5051938;28;20251;-86
2021/03/03 09:32:45;;;;;;;152.17;99.83;;;;;;;;;;5051546;28;20176;-86
2021/03/03 09:35:13;;;;;;;91.00;46.93;;;;;;;;;;5050331;28;20203;-86
2021/03/03 09:37:40;;;;;;;79.50;45.20;;;;;;;;;;5051798;28;20203;-87
2021/03/03 09:40:07;;;;;;;80.07;46.23;;;;;;;;;;5050588;28;20536;-86
2021/03/03 09:42:37;;;;;;;93.30;57.53;;;;;;;;;;5052521;28;20171;-86
2021/03/03 09:45:03;;;;;;;83.90;46.93;;;;;;;;;;5053690;28;20204;-85
2021/03/03 09:47:31;;;;;;;101.47;58.27;;;;;;;;;;5053399;28;20691;-85
2021/03/03 09:49:56;;;;;;;83.57;46.27;;;;;;;;;;5053604;28;20168;-85
2021/03/03 09:52:22;;;;;;;98.13;54.57;;;;;;;;;;5052059;28;20220;-86
2021/03/03 09:54:48;;;;;;;83.33;49.77;;;;;;;;;;5051726;28;20207;-86
2021/03/03 09:57:20;;;;;;;93.97;55.80;;;;;;;;;;5051539;28;20654;-85
2021/03/03 09:59:47;;;;;;;92.63;51.83;;;;;;;;;;5049698;28;20175;-86
2021/03/03 10:02:15;;;;;;;83.17;46.90;;;;;;;;;;5040180;28;20191;-86
2021/03/03 10:04:41;;;;;;;80.30;46.90;;;;;;;;;;5030507;28;20588;-86
2021/03/03 10:07:14;;;;;;;77.13;47.27;;;;;;;;;;5031841;28;20184;-86
2021/03/03 10:09:43;;;;;;;78.33;48.47;;;;;;;;;;5032105;28;20196;-86
2021/03/03 10:12:12;;;;;;;74.47;45.77;;;;;;;;;;5031476;28;20207;-86
2021/03/03 10:15:10;;;;;;;86.37;51.43;;;;;;;;;;5033393;28;20183;-86
2021/03/03 10:17:35;;;;;;;68.07;43.83;;;;;;;;;;5012149;28;20228;-86
2021/03/03 10:20:03;;;;;;;72.20;44.73;;;;;;;;;;5035660;28;20202;-86
2021/03/03 10:22:28;;;;;;;77.20;46.80;;;;;;;;;;5034327;28;20581;-86
2021/03/03 10:24:58;;;;;;;80.07;46.27;;;;;;;;;;5035224;28;20176;-86
2021/03/03 10:27:23;;;;;;;81.63;44.77;;;;;;;;;;5050345;28;20187;-85
2021/03/03 10:29:48;;;;;;;76.53;44.10;;;;;;;;;;5054890;28;20175;-87
2021/03/03 10:32:14;;;;;;;85.87;51.23;;;;;;;;;;5053860;28;20180;-86
2021/03/03 10:34:42;;;;;;;76.40;45.30;;;;;;;;;;5054331;28;20609;-85
2021/03/03 10:37:08;;;;;;;84.00;49.43;;;;;;;;;;5052116;28;20216;-85
2021/03/03 10:39:33;;;;;;;71.07;43.43;;;;;;;;;;5043319;28;20191;-85
2021/03/03 10:42:03;;;;;;;65.03;41.37;;;;;;;;;;5034550;28;20624;-86
2021/03/03 10:44:41;;;;;;;75.20;44.27;;;;;;;;;;5033673;28;20187;-85
2021/03/03 10:47:07;;;;;;;77.83;46.17;;;;;;;;;;5034792;28;20536;-85
2021/03/03 10:49:38;;;;;;;67.13;42.97;;;;;;;;;;5038836;28;20183;-85
2021/03/03 10:52:24;;;;;;;72.53;43.37;;;;;;;;;;5054595;28;20611;-86
2021/03/03 10:54:49;;;;;;;68.33;43.40;;;;;;;;;;5054088;28;20187;-86
2021/03/03 10:57:14;;;;;;;68.37;40.87;;;;;;;;;;5053204;28;20735;-85
2021/03/03 10:59:40;;;;;;;69.80;42.43;;;;;;;;;;5054183;28;20217;-85
2021/03/03 11:02:06;;;;;;;71.07;43.40;;;;;;;;;;5054653;28;20167;-85
2021/03/03 11:04:38;;;;;;;69.03;42.03;;;;;;;;;;5054616;28;20226;-84
2021/03/03 11:07:04;;;;;;;73.03;42.43;;;;;;;;;;5052242;28;20804;-84
2021/03/03 11:09:30;;;;;;;79.17;46.13;;;;;;;;;;5052733;28;20190;-84
2021/03/03 11:11:56;;;;;;;90.10;53.13;;;;;;;;;;5054138;28;20178;-85
2021/03/03 11:14:22;;;;;;;78.57;46.13;;;;;;;;;;5054205;28;20184;-84
2021/03/03 11:16:48;;;;;;;76.03;45.90;;;;;;;;;;5055225;28;20511;-84
2021/03/03 11:19:14;;;;;;;82.87;50.87;;;;;;;;;;5056429;28;20172;-84
2021/03/03 11:21:39;;;;;;;92.43;57.17;;;;;;;;;;5056673;28;20171;-84
2021/03/03 11:24:05;;;;;;;84.93;51.60;;;;;;;;;;5056447;28;20644;-84
2021/03/03 11:26:31;;;;;;;93.00;55.87;;;;;;;;;;5053985;28;20179;-84
2021/03/03 11:28:56;;;;;;;90.73;55.17;;;;;;;;;;5054740;28;20176;-83
2021/03/03 11:31:21;;;;;;;89.73;51.23;;;;;;;;;;5055822;28;20686;-83
2021/03/03 11:33:48;;;;;;;97.43;54.70;;;;;;;;;;5055946;28;20254;-83
2021/03/03 11:36:14;;;;;;;80.53;48.80;;;;;;;;;;5054243;28;20279;-84
2021/03/03 11:38:39;;;;;;;79.40;47.03;;;;;;;;;;5055320;28;20207;-84
2021/03/03 11:41:05;;;;;;;76.73;46.37;;;;;;;;;;5055223;28;20171;-83
2021/03/03 11:43:30;;;;;;;76.63;48.63;;;;;;;;;;5055468;28;20175;-83
2021/03/03 11:45:55;;;;;;;80.03;47.90;;;;;;;;;;5055458;28;20172;-83
2021/03/03 11:48:22;;;;;;;87.40;49.97;;;;;;;;;;5055239;28;20175;-83
2021/03/03 11:50:47;;;;;;;85.40;51.33;;;;;;;;;;5055265;28;20191;-83
2021/03/03 11:53:12;;;;;;;81.33;47.73;;;;;;;;;;5055311;28;20180;-83
2021/03/03 11:55:38;;;;;;;85.63;50.47;;;;;;;;;;5054582;28;20221;-84
2021/03/03 11:58:03;;;;;;;73.87;45.63;;;;;;;;;;5054989;28;20203;-84
2021/03/03 12:00:29;;;;;;;72.83;45.50;;;;;;;;;;5054638;28;20219;-83
2021/03/03 12:02:54;;;;;;;72.77;46.00;;;;;;;;;;5054087;28;20643;-84
2021/03/03 12:05:19;;;;;;;72.10;44.53;;;;;;;;;;5054875;28;20657;-84
2021/03/03 12:07:45;;;;;;;73.80;46.10;;;;;;;;;;5054897;28;20172;-84
2021/03/03 12:10:10;;;;;;;76.80;44.67;;;;;;;;;;5054883;28;20635;-84
2021/03/03 12:12:36;;;;;;;75.83;44.20;;;;;;;;;;5055335;28;20191;-83
2021/03/03 12:15:01;;;;;;;82.00;46.60;;;;;;;;;;5055053;28;20230;-84
2021/03/03 12:17:27;;;;;;;74.67;45.67;;;;;;;;;;5054914;28;20202;-84
2021/03/03 12:19:53;;;;;;;73.03;44.63;;;;;;;;;;5054975;28;20172;-84
2021/03/03 12:22:18;;;;;;;96.83;61.63;;;;;;;;;;5053409;28;20230;-84
2021/03/03 12:24:44;;;;;;;105.53;67.67;;;;;;;;;;5053770;28;20540;-83
2021/03/03 12:27:09;;;;;;;80.13;47.93;;;;;;;;;;5054604;28;20249;-84
2021/03/03 12:29:36;;;;;;;64.10;41.13;;;;;;;;;;5055104;28;20293;-84
2021/03/03 12:32:01;;;;;;;82.40;52.70;;;;;;;;;;5054269;28;20634;-84
2021/03/03 12:34:27;;;;;;;58.53;37.63;;;;;;;;;;5053844;28;20263;-84
2021/03/03 12:36:52;;;;;;;46.43;30.77;;;;;;;;;;5053899;28;20515;-84
2021/03/03 12:39:18;;;;;;;44.77;30.07;;;;;;;;;;5054021;28;20171;-83
2021/03/03 12:41:43;;;;;;;46.40;31.07;;;;;;;;;;5054490;28;20168;-84
2021/03/03 12:44:08;;;;;;;42.37;29.33;;;;;;;;;;5054570;28;20521;-83
2021/03/03 12:46:34;;;;;;;44.37;30.00;;;;;;;;;;5054157;28;20176;-84
2021/03/03 12:48:59;;;;;;;47.10;29.77;;;;;;;;;;5054382;28;20254;-84
2021/03/03 12:51:24;;;;;;;48.17;31.83;;;;;;;;;;5054357;28;20262;-84
2021/03/03 12:53:50;;;;;;;46.57;30.13;;;;;;;;;;5052450;28;20184;-82
2021/03/03 12:56:15;;;;;;;42.43;28.43;;;;;;;;;;5053646;28;20263;-82
2021/03/03 12:58:40;;;;;;;41.07;28.87;;;;;;;;;;5054041;28;20298;-82
2021/03/03 13:01:06;;;;;;;44.07;28.17;;;;;;;;;;5052445;28;20226;-83
2021/03/03 13:03:31;;;;;;;46.60;28.17;;;;;;;;;;5052800;28;20180;-82
2021/03/03 13:05:57;;;;;;;38.83;26.53;;;;;;;;;;5053830;28;20242;-82
2021/03/03 13:08:22;;;;;;;37.47;25.87;;;;;;;;;;5053756;28;20176;-82
2021/03/03 13:10:48;;;;;;;41.33;27.13;;;;;;;;;;5044974;28;20189;-82
2021/03/03 13:13:13;;;;;;;39.97;25.33;;;;;;;;;;5051629;28;20634;-83
2021/03/03 13:15:39;;;;;;;32.27;22.80;;;;;;;;;;5053739;28;20211;-82
2021/03/03 13:18:04;;;;;;;36.83;23.70;;;;;;;;;;5052190;28;20214;-82
2021/03/03 13:20:29;;;;;;;39.63;26.43;;;;;;;;;;5053705;28;20171;-82
2021/03/03 13:22:55;;;;;;;35.10;23.63;;;;;;;;;;5052384;28;20570;-82
2021/03/03 13:25:20;;;;;;;28.27;18.47;;;;;;;;;;5053827;28;20167;-82
2021/03/03 13:27:45;;;;;;;26.97;19.00;;;;;;;;;;5053540;28;20298;-82
2021/03/03 13:30:11;;;;;;;41.60;29.33;;;;;;;;;;5053560;28;20163;-82
2021/03/03 13:32:37;;;;;;;27.87;20.53;;;;;;;;;;5053351;28;20178;-81
2021/03/03 13:35:03;;;;;;;22.47;15.50;;;;;;;;;;5053754;28;20191;-82
2021/03/03 13:37:28;;;;;;;20.57;15.37;;;;;;;;;;5054373;28;20199;-82
2021/03/03 13:39:53;;;;;;;19.27;14.77;;;;;;;;;;5052341;28;20655;-83
2021/03/03 13:42:19;;;;;;;24.00;15.63;;;;;;;;;;5038973;28;20187;-82
2021/03/03 13:44:44;;;;;;;25.47;17.90;;;;;;;;;;5033758;28;20685;-83
2021/03/03 13:47:09;;;;;;;24.93;18.13;;;;;;;;;;5033664;28;20634;-84
2021/03/03 13:49:35;;;;;;;25.10;17.77;;;;;;;;;;5035100;28;20172;-84
2021/03/03 13:52:01;;;;;;;27.27;20.47;;;;;;;;;;5037974;28;20176;-84
2021/03/03 13:54:26;;;;;;;29.63;19.87;;;;;;;;;;5036443;28;20180;-83
2021/03/03 13:56:51;;;;;;;26.60;19.67;;;;;;;;;;5037493;28;20214;-83
2021/03/03 13:59:17;;;;;;;31.50;20.80;;;;;;;;;;5037498;28;20168;-82
2021/03/03 14:01:42;;;;;;;32.00;22.90;;;;;;;;;;5037833;28;20230;-82
2021/03/03 14:04:07;;;;;;;34.57;23.93;;;;;;;;;;5036943;28;20520;-82
2021/03/03 14:06:32;;;;;;;29.77;21.43;;;;;;;;;;5037449;28;20326;-82